Ellerslie, Georgia
Current Conditions -  °F | °C
As of 10:51 PM on Saturday 24 Jan 2015 (Local Time) from KCSG Reporting Station
Clear Clear  
Wind Chill: 40°   Ceiling: Unl
Heat Index: 40°   Visibility: 10mi
Dew Point: 29°   Wind: 0mph
Humidity: 65%   Direction: NA
Pressure: 30.01"   Gusts: NA
Location:  32.63°N, 84.8°W
Report Text: KCSG 250351Z AUTO 00000KT 10SM CLR 04/M02 A3001 RMK AO2 SLP164 T00441017
Loading
Personal Weather Stations






























Interactive Weather Map New forecast layout! Learn more

10-Day Weather Forecast

Advertisements
Track Severe Weather on mobile